sensor_id;sensor_type;location;lat;lon;timestamp;pressure;altitude;pressure_sealevel;temperature;humidity
76973;BME280;65907;53.640;10.050;2023-04-07T00:00:54;101016.75;;;18.19;32.58
76973;BME280;65907;53.640;10.050;2023-04-07T00:03:20;101007.47;;;18.15;33.08
76973;BME280;65907;53.640;10.050;2023-04-07T00:05:45;101014.34;;;18.03;33.24
76973;BME280;65907;53.640;10.050;2023-04-07T00:08:10;101012.16;;;18.10;33.14
76973;BME280;65907;53.640;10.050;2023-04-07T00:10:36;101018.81;;;18.14;32.93
76973;BME280;65907;53.640;10.050;2023-04-07T00:13:01;101011.31;;;18.10;32.99
76973;BME280;65907;53.640;10.050;2023-04-07T00:15:26;101014.25;;;18.05;33.11
76973;BME280;65907;53.640;10.050;2023-04-07T00:17:54;101005.75;;;17.88;33.48
76973;BME280;65907;53.640;10.050;2023-04-07T00:20:20;101006.53;;;18.03;32.81
76973;BME280;65907;53.640;10.050;2023-04-07T00:22:45;101009.25;;;18.02;32.92
76973;BME280;65907;53.640;10.050;2023-04-07T00:25:10;101011.00;;;18.01;32.93
76973;BME280;65907;53.640;10.050;2023-04-07T00:27:35;101015.78;;;18.08;33.00
76973;BME280;65907;53.640;10.050;2023-04-07T00:30:01;101014.13;;;18.06;32.79
76973;BME280;65907;53.640;10.050;2023-04-07T00:32:28;101007.84;;;17.96;32.99
76973;BME280;65907;53.640;10.050;2023-04-07T00:34:55;101016.00;;;18.04;32.83
76973;BME280;65907;53.640;10.050;2023-04-07T00:37:21;101011.72;;;18.03;33.04
76973;BME280;65907;53.640;10.050;2023-04-07T00:39:46;101006.31;;;18.06;33.01
76973;BME280;65907;53.640;10.050;2023-04-07T00:42:15;101011.31;;;18.10;32.82
76973;BME280;65907;53.640;10.050;2023-04-07T00:44:40;101008.84;;;18.21;32.75
76973;BME280;65907;53.640;10.050;2023-04-07T00:47:08;101005.59;;;18.04;32.83
76973;BME280;65907;53.640;10.050;2023-04-07T00:49:33;101000.09;;;18.22;32.48
76973;BME280;65907;53.640;10.050;2023-04-07T00:51:58;101000.72;;;18.13;32.68
76973;BME280;65907;53.640;10.050;2023-04-07T00:54:24;101003.84;;;18.05;33.07
76973;BME280;65907;53.640;10.050;2023-04-07T00:56:52;101005.38;;;18.08;32.66
76973;BME280;65907;53.640;10.050;2023-04-07T00:59:17;101003.84;;;18.18;32.76
76973;BME280;65907;53.640;10.050;2023-04-07T01:04:08;101000.00;;;18.24;32.55
76973;BME280;65907;53.640;10.050;2023-04-07T01:06:38;101004.56;;;18.07;32.66
76973;BME280;65907;53.640;10.050;2023-04-07T01:09:05;101004.34;;;18.10;32.56
76973;BME280;65907;53.640;10.050;2023-04-07T01:14:03;101000.41;;;18.17;32.43
76973;BME280;65907;53.640;10.050;2023-04-07T01:16:36;100993.94;;;18.10;32.74
76973;BME280;65907;53.640;10.050;2023-04-07T01:19:07;100993.91;;;17.97;32.79
76973;BME280;65907;53.640;10.050;2023-04-07T01:21:37;100995.53;;;18.13;32.45
76973;BME280;65907;53.640;10.050;2023-04-07T01:24:07;100993.53;;;18.16;32.49
76973;BME280;65907;53.640;10.050;2023-04-07T01:26:35;101002.78;;;18.08;32.89
76973;BME280;65907;53.640;10.050;2023-04-07T01:31:39;100996.28;;;18.00;32.72
76973;BME280;65907;53.640;10.050;2023-04-07T01:34:04;100992.03;;;17.99;33.03
76973;BME280;65907;53.640;10.050;2023-04-07T01:36:30;100993.44;;;18.05;32.75
76973;BME280;65907;53.640;10.050;2023-04-07T01:38:58;100988.84;;;18.09;32.84
76973;BME280;65907;53.640;10.050;2023-04-07T01:41:23;100992.28;;;18.09;32.66
76973;BME280;65907;53.640;10.050;2023-04-07T01:43:52;100992.69;;;18.03;32.52
76973;BME280;65907;53.640;10.050;2023-04-07T01:46:17;100994.13;;;17.94;33.24
76973;BME280;65907;53.640;10.050;2023-04-07T01:48:43;100986.66;;;18.02;32.60
76973;BME280;65907;53.640;10.050;2023-04-07T01:51:09;100997.28;;;18.12;32.47
76973;BME280;65907;53.640;10.050;2023-04-07T01:53:38;100995.00;;;18.20;32.27
76973;BME280;65907;53.640;10.050;2023-04-07T01:56:03;100996.25;;;18.02;32.93
76973;BME280;65907;53.640;10.050;2023-04-07T01:58:29;100994.53;;;18.01;32.68
76973;BME280;65907;53.640;10.050;2023-04-07T02:00:54;100996.47;;;18.12;32.65
76973;BME280;65907;53.640;10.050;2023-04-07T02:03:27;100999.59;;;18.17;32.29
76973;BME280;65907;53.640;10.050;2023-04-07T02:05:54;101004.34;;;18.10;32.48
76973;BME280;65907;53.640;10.050;2023-04-07T02:08:21;100992.00;;;18.14;32.48
76973;BME280;65907;53.640;10.050;2023-04-07T02:10:48;100998.44;;;18.08;32.32
76973;BME280;65907;53.640;10.050;2023-04-07T02:13:15;100993.44;;;18.05;32.70
76973;BME280;65907;53.640;10.050;2023-04-07T02:15:42;100991.88;;;18.15;32.51
76973;BME280;65907;53.640;10.050;2023-04-07T02:18:09;100994.38;;;18.04;32.60
76973;BME280;65907;53.640;10.050;2023-04-07T02:20:36;100989.44;;;17.99;32.94
76973;BME280;65907;53.640;10.050;2023-04-07T02:23:02;100991.59;;;17.92;32.76
76973;BME280;65907;53.640;10.050;2023-04-07T02:25:28;100990.38;;;17.98;32.93
76973;BME280;65907;53.640;10.050;2023-04-07T02:27:54;100996.03;;;18.05;32.70
76973;BME280;65907;53.640;10.050;2023-04-07T02:30:20;100992.03;;;17.99;32.75
76973;BME280;65907;53.640;10.050;2023-04-07T02:32:45;100995.09;;;18.06;32.68
76973;BME280;65907;53.640;10.050;2023-04-07T02:35:11;100996.56;;;18.10;32.47
76973;BME280;65907;53.640;10.050;2023-04-07T02:37:36;100995.47;;;18.00;32.33
76973;BME280;65907;53.640;10.050;2023-04-07T02:40:05;100995.03;;;17.93;32.77
76973;BME280;65907;53.640;10.050;2023-04-07T02:42:31;100999.75;;;18.01;32.50
76973;BME280;65907;53.640;10.050;2023-04-07T02:44:56;100990.50;;;18.10;32.51
76973;BME280;65907;53.640;10.050;2023-04-07T02:47:21;100994.63;;;17.99;32.76
76973;BME280;65907;53.640;10.050;2023-04-07T02:49:46;100996.25;;;18.02;32.47
76973;BME280;65907;53.640;10.050;2023-04-07T02:52:12;100994.53;;;18.01;32.37
76973;BME280;65907;53.640;10.050;2023-04-07T02:54:40;101000.59;;;18.01;32.78
76973;BME280;65907;53.640;10.050;2023-04-07T02:57:05;101000.78;;;17.98;32.48
76973;BME280;65907;53.640;10.050;2023-04-07T02:59:30;100993.69;;;17.87;32.85
76973;BME280;65907;53.640;10.050;2023-04-07T03:01:55;100998.09;;;18.00;32.54
76973;BME280;65907;53.640;10.050;2023-04-07T03:04:21;100994.72;;;17.98;32.77
76973;BME280;65907;53.640;10.050;2023-04-07T03:06:46;100994.16;;;18.07;32.31
76973;BME280;65907;53.640;10.050;2023-04-07T03:09:12;100992.69;;;18.03;32.28
76973;BME280;65907;53.640;10.050;2023-04-07T03:11:38;100997.78;;;18.04;32.29
76973;BME280;65907;53.640;10.050;2023-04-07T03:14:06;100990.78;;;17.92;32.41
76973;BME280;65907;53.640;10.050;2023-04-07T03:16:31;100994.72;;;17.98;32.27
76973;BME280;65907;53.640;10.050;2023-04-07T03:18:56;100996.50;;;17.97;32.38
76973;BME280;65907;53.640;10.050;2023-04-07T03:21:24;100992.75;;;17.88;32.62
76973;BME280;65907;53.640;10.050;2023-04-07T03:23:49;100995.66;;;17.97;32.76
76973;BME280;65907;53.640;10.050;2023-04-07T03:26:14;100997.66;;;17.93;32.40
76973;BME280;65907;53.640;10.050;2023-04-07T03:28:40;100994.53;;;17.88;32.62
76973;BME280;65907;53.640;10.050;2023-04-07T03:31:05;100995.78;;;17.95;32.47
76973;BME280;65907;53.640;10.050;2023-04-07T03:33:30;100993.69;;;18.00;32.44
76973;BME280;65907;53.640;10.050;2023-04-07T03:35:55;100992.81;;;17.87;32.44
76973;BME280;65907;53.640;10.050;2023-04-07T03:38:21;100990.78;;;17.92;32.54
76973;BME280;65907;53.640;10.050;2023-04-07T03:40:48;100992.66;;;17.90;32.45
76973;BME280;65907;53.640;10.050;2023-04-07T03:43:14;100995.44;;;17.87;32.63
76973;BME280;65907;53.640;10.050;2023-04-07T03:45:40;100997.84;;;17.90;32.58
76973;BME280;65907;53.640;10.050;2023-04-07T03:48:08;100994.69;;;17.85;32.51
76973;BME280;65907;53.640;10.050;2023-04-07T03:50:36;100999.09;;;17.97;32.40
76973;BME280;65907;53.640;10.050;2023-04-07T03:53:01;100990.66;;;17.94;32.48
76973;BME280;65907;53.640;10.050;2023-04-07T03:55:26;100993.19;;;17.95;32.49
76973;BME280;65907;53.640;10.050;2023-04-07T03:57:52;100996.84;;;18.05;32.28
76973;BME280;65907;53.640;10.050;2023-04-07T04:00:17;100998.78;;;17.89;32.36
76973;BME280;65907;53.640;10.050;2023-04-07T04:02:42;100997.91;;;18.03;32.25
76973;BME280;65907;53.640;10.050;2023-04-07T04:05:07;100996.03;;;18.05;32.28
76973;BME280;65907;53.640;10.050;2023-04-07T04:07:33;100998.59;;;17.92;32.47
76973;BME280;65907;53.640;10.050;2023-04-07T04:09:58;101011.00;;;18.01;32.35
76973;BME280;65907;53.640;10.050;2023-04-07T04:12:23;101011.88;;;17.87;32.44
76973;BME280;65907;53.640;10.050;2023-04-07T04:14:48;101011.38;;;17.95;32.59
76973;BME280;65907;53.640;10.050;2023-04-07T04:17:13;101012.13;;;17.97;32.21
76973;BME280;65907;53.640;10.050;2023-04-07T04:19:39;101019.06;;;17.97;32.37
76973;BME280;65907;53.640;10.050;2023-04-07T04:22:07;101018.03;;;17.86;32.53
76973;BME280;65907;53.640;10.050;2023-04-07T04:24:32;101014.97;;;17.80;32.46
76973;BME280;65907;53.640;10.050;2023-04-07T04:26:57;101011.69;;;17.90;32.25
76973;BME280;65907;53.640;10.050;2023-04-07T04:29:22;101015.94;;;17.91;32.11
76973;BME280;65907;53.640;10.050;2023-04-07T04:31:48;101016.25;;;17.87;32.38
76973;BME280;65907;53.640;10.050;2023-04-07T04:34:13;101021.97;;;17.79;32.59
76973;BME280;65907;53.640;10.050;2023-04-07T04:36:38;101018.03;;;17.86;32.38
76973;BME280;65907;53.640;10.050;2023-04-07T04:39:05;101026.75;;;17.85;32.33
76973;BME280;65907;53.640;10.050;2023-04-07T04:41:32;101032.28;;;17.94;32.11
76973;BME280;65907;53.640;10.050;2023-04-07T04:43:57;101025.34;;;17.94;32.35
76973;BME280;65907;53.640;10.050;2023-04-07T04:46:23;101026.84;;;17.84;32.62
76973;BME280;65907;53.640;10.050;2023-04-07T04:49:00;101034.56;;;17.85;32.33
76973;BME280;65907;53.640;10.050;2023-04-07T04:51:26;101029.59;;;17.95;32.38
76973;BME280;65907;53.640;10.050;2023-04-07T04:53:51;101035.50;;;17.84;32.61
76973;BME280;65907;53.640;10.050;2023-04-07T04:56:16;101029.38;;;17.85;32.33
76973;BME280;65907;53.640;10.050;2023-04-07T04:58:42;101034.44;;;17.87;32.40
76973;BME280;65907;53.640;10.050;2023-04-07T05:01:10;101039.78;;;17.85;32.37
76973;BME280;65907;53.640;10.050;2023-04-07T05:03:35;101044.06;;;17.99;32.05
76973;BME280;65907;53.640;10.050;2023-04-07T05:06:01;101051.63;;;17.89;32.34
76973;BME280;65907;53.640;10.050;2023-04-07T05:08:26;101044.28;;;17.96;32.04
76973;BME280;65907;53.640;10.050;2023-04-07T05:10:51;101044.69;;;17.90;32.31
76973;BME280;65907;53.640;10.050;2023-04-07T05:13:16;101046.56;;;17.88;32.30
76973;BME280;65907;53.640;10.050;2023-04-07T05:15:41;101054.25;;;17.89;32.45
76973;BME280;65907;53.640;10.050;2023-04-07T05:18:07;101050.13;;;18.00;31.98
76973;BME280;65907;53.640;10.050;2023-04-07T05:20:32;101045.41;;;17.92;32.13
76973;BME280;65907;53.640;10.050;2023-04-07T05:22:57;101050.06;;;17.87;32.13
76973;BME280;65907;53.640;10.050;2023-04-07T05:25:26;101048.59;;;17.83;32.37
76973;BME280;65907;53.640;10.050;2023-04-07T05:27:51;101057.25;;;17.83;32.52
76973;BME280;65907;53.640;10.050;2023-04-07T05:30:16;101056.31;;;17.84;32.08
76973;BME280;65907;53.640;10.050;2023-04-07T05:32:41;101054.84;;;17.80;32.34
76973;BME280;65907;53.640;10.050;2023-04-07T05:35:06;101054.44;;;17.86;32.29
76973;BME280;65907;53.640;10.050;2023-04-07T05:37:32;101055.25;;;17.87;32.53
76973;BME280;65907;53.640;10.050;2023-04-07T05:39:57;101052.28;;;17.93;32.30
76973;BME280;65907;53.640;10.050;2023-04-07T05:42:22;101054.25;;;17.89;32.15
76973;BME280;65907;53.640;10.050;2023-04-07T05:44:48;101060.38;;;17.88;32.37
76973;BME280;65907;53.640;10.050;2023-04-07T05:47:13;101057.50;;;17.93;32.27
76973;BME280;65907;53.640;10.050;2023-04-07T05:49:38;101053.72;;;18.12;31.58
76973;BME280;65907;53.640;10.050;2023-04-07T05:52:09;101049.84;;;18.17;31.92
76973;BME280;65907;53.640;10.050;2023-04-07T05:54:35;101060.69;;;18.24;31.72
76973;BME280;65907;53.640;10.050;2023-04-07T05:57:00;101065.59;;;18.29;31.33
76973;BME280;65907;53.640;10.050;2023-04-07T05:59:25;101062.34;;;18.12;31.46
76973;BME280;65907;53.640;10.050;2023-04-07T06:01:51;101068.81;;;18.19;31.66
76973;BME280;65907;53.640;10.050;2023-04-07T06:04:16;101069.59;;;17.80;32.55
76973;BME280;65907;53.640;10.050;2023-04-07T06:06:45;101065.56;;;18.03;31.85
76973;BME280;65907;53.640;10.050;2023-04-07T06:09:15;101062.34;;;17.85;32.38
76973;BME280;65907;53.640;10.050;2023-04-07T06:11:40;101071.47;;;17.77;32.33
76973;BME280;65907;53.640;10.050;2023-04-07T06:14:06;101079.00;;;17.82;32.27
76973;BME280;65907;53.640;10.050;2023-04-07T06:16:31;101084.66;;;17.89;32.43
76973;BME280;65907;53.640;10.050;2023-04-07T06:18:57;101077.25;;;18.23;32.02
76973;BME280;65907;53.640;10.050;2023-04-07T06:21:24;101080.50;;;18.40;31.42
76973;BME280;65907;53.640;10.050;2023-04-07T06:23:50;101081.69;;;18.48;31.29
76973;BME280;65907;53.640;10.050;2023-04-07T06:26:15;101086.47;;;18.55;31.45
76973;BME280;65907;53.640;10.050;2023-04-07T06:28:40;101083.00;;;18.54;31.07
76973;BME280;65907;53.640;10.050;2023-04-07T06:31:06;101088.56;;;18.62;30.92
76973;BME280;65907;53.640;10.050;2023-04-07T06:33:34;101091.56;;;18.56;31.69
76973;BME280;65907;53.640;10.050;2023-04-07T06:36:00;101095.81;;;18.44;31.97
76973;BME280;65907;53.640;10.050;2023-04-07T06:38:25;101094.16;;;18.43;32.02
76973;BME280;65907;53.640;10.050;2023-04-07T06:40:50;101093.53;;;18.40;32.04
76973;BME280;65907;53.640;10.050;2023-04-07T06:43:15;101104.59;;;18.03;32.61
76973;BME280;65907;53.640;10.050;2023-04-07T06:45:41;101098.69;;;18.14;32.75
76973;BME280;65907;53.640;10.050;2023-04-07T06:48:06;101105.00;;;18.10;32.39
76973;BME280;65907;53.640;10.050;2023-04-07T06:50:31;101102.63;;;18.19;32.21
76973;BME280;65907;53.640;10.050;2023-04-07T06:52:56;101109.94;;;18.27;32.52
76973;BME280;65907;53.640;10.050;2023-04-07T06:55:21;101107.47;;;18.26;32.52
76973;BME280;65907;53.640;10.050;2023-04-07T06:57:47;101105.09;;;18.36;32.00
76973;BME280;65907;53.640;10.050;2023-04-07T07:00:12;101106.13;;;18.33;32.30
76973;BME280;65907;53.640;10.050;2023-04-07T07:02:37;101107.56;;;18.37;31.94
76973;BME280;65907;53.640;10.050;2023-04-07T07:05:02;101113.19;;;18.31;32.11
76973;BME280;65907;53.640;10.050;2023-04-07T07:07:29;101110.31;;;18.36;31.94
76973;BME280;65907;53.640;10.050;2023-04-07T07:09:54;101120.16;;;18.30;32.42
76973;BME280;65907;53.640;10.050;2023-04-07T07:12:19;101109.38;;;18.37;32.11
76973;BME280;65907;53.640;10.050;2023-04-07T07:14:44;101110.19;;;18.37;32.33
76973;BME280;65907;53.640;10.050;2023-04-07T07:17:10;101117.00;;;18.53;31.91
76973;BME280;65907;53.640;10.050;2023-04-07T07:19:35;101119.59;;;18.53;31.79
76973;BME280;65907;53.640;10.050;2023-04-07T07:22:03;101118.94;;;18.36;32.23
76973;BME280;65907;53.640;10.050;2023-04-07T07:24:29;101122.63;;;18.46;31.87
76973;BME280;65907;53.640;10.050;2023-04-07T07:26:57;101125.63;;;18.53;32.16
76973;BME280;65907;53.640;10.050;2023-04-07T07:29:22;101127.50;;;18.64;31.65
76973;BME280;65907;53.640;10.050;2023-04-07T07:31:49;101130.97;;;18.77;31.77
76973;BME280;65907;53.640;10.050;2023-04-07T07:34:14;101130.66;;;18.69;32.11
76973;BME280;65907;53.640;10.050;2023-04-07T07:36:42;101133.56;;;18.65;31.88
76973;BME280;65907;53.640;10.050;2023-04-07T07:39:07;101136.25;;;18.63;32.13
76973;BME280;65907;53.640;10.050;2023-04-07T07:41:32;101135.03;;;18.69;32.01
76973;BME280;65907;53.640;10.050;2023-04-07T07:44:00;101135.44;;;18.75;31.50
76973;BME280;65907;53.640;10.050;2023-04-07T07:46:25;101131.06;;;18.76;31.85
76973;BME280;65907;53.640;10.050;2023-04-07T07:48:51;101129.59;;;18.72;31.60
76973;BME280;65907;53.640;10.050;2023-04-07T07:51:16;101129.50;;;18.73;31.93
76973;BME280;65907;53.640;10.050;2023-04-07T07:53:44;101134.94;;;18.70;31.99
76973;BME280;65907;53.640;10.050;2023-04-07T07:56:10;101141.38;;;18.77;31.90
76973;BME280;65907;53.640;10.050;2023-04-07T07:58:35;101141.59;;;18.74;31.84
76973;BME280;65907;53.640;10.050;2023-04-07T08:01:03;101141.25;;;18.79;31.83
76973;BME280;65907;53.640;10.050;2023-04-07T08:03:28;101145.34;;;18.83;31.56
76973;BME280;65907;53.640;10.050;2023-04-07T08:05:56;101146.50;;;18.92;31.70
76973;BME280;65907;53.640;10.050;2023-04-07T08:08:21;101146.38;;;18.94;31.48
76973;BME280;65907;53.640;10.050;2023-04-07T08:10:46;101145.97;;;18.87;31.37
76973;BME280;65907;53.640;10.050;2023-04-07T08:13:15;101147.13;;;18.96;31.30
76973;BME280;65907;53.640;10.050;2023-04-07T08:15:40;101149.97;;;19.05;31.24
76973;BME280;65907;53.640;10.050;2023-04-07T08:18:05;101151.22;;;19.00;31.27
76973;BME280;65907;53.640;10.050;2023-04-07T08:20:32;101158.28;;;19.11;31.35
76973;BME280;65907;53.640;10.050;2023-04-07T08:22:58;101154.88;;;19.10;31.00
76973;BME280;65907;53.640;10.050;2023-04-07T08:25:23;101152.69;;;19.04;31.45
76973;BME280;65907;53.640;10.050;2023-04-07T08:27:48;101154.88;;;19.10;31.37
76973;BME280;65907;53.640;10.050;2023-04-07T08:30:14;101149.53;;;19.12;31.29
76973;BME280;65907;53.640;10.050;2023-04-07T08:32:40;101151.94;;;19.02;31.34
76973;BME280;65907;53.640;10.050;2023-04-07T08:35:05;101153.63;;;19.16;31.29
76973;BME280;65907;53.640;10.050;2023-04-07T08:37:31;101155.47;;;19.14;31.56
76973;BME280;65907;53.640;10.050;2023-04-07T08:39:57;101160.50;;;19.17;31.43
76973;BME280;65907;53.640;10.050;2023-04-07T08:42:23;101155.28;;;19.17;31.27
76973;BME280;65907;53.640;10.050;2023-04-07T08:44:51;101166.84;;;19.13;31.70
76973;BME280;65907;53.640;10.050;2023-04-07T08:47:17;101163.13;;;19.04;31.60
76973;BME280;65907;53.640;10.050;2023-04-07T08:49:44;101163.47;;;18.98;31.72
76973;BME280;65907;53.640;10.050;2023-04-07T08:52:12;101162.06;;;19.06;31.72
76973;BME280;65907;53.640;10.050;2023-04-07T08:54:39;101169.56;;;19.11;31.60
76973;BME280;65907;53.640;10.050;2023-04-07T08:57:06;101171.13;;;19.14;31.87
76973;BME280;65907;53.640;10.050;2023-04-07T08:59:31;101168.00;;;19.09;32.03
76973;BME280;65907;53.640;10.050;2023-04-07T09:01:58;101166.84;;;19.13;31.59
76973;BME280;65907;53.640;10.050;2023-04-07T09:04:23;101171.13;;;19.14;31.74
76973;BME280;65907;53.640;10.050;2023-04-07T09:06:51;101170.09;;;19.03;31.97
76973;BME280;65907;53.640;10.050;2023-04-07T09:09:19;101177.19;;;19.01;32.05
76973;BME280;65907;53.640;10.050;2023-04-07T09:11:46;101173.22;;;19.09;31.90
76973;BME280;65907;53.640;10.050;2023-04-07T09:14:12;101176.66;;;19.09;31.97
76973;BME280;65907;53.640;10.050;2023-04-07T09:16:37;101175.38;;;19.02;31.98
76973;BME280;65907;53.640;10.050;2023-04-07T09:19:03;101176.44;;;18.99;31.96
76973;BME280;65907;53.640;10.050;2023-04-07T09:24:22;101171.13;;;19.01;32.36
76973;BME280;65907;53.640;10.050;2023-04-07T09:26:48;101173.63;;;19.02;32.17
76973;BME280;65907;53.640;10.050;2023-04-07T09:29:17;101172.69;;;19.03;32.05
76973;BME280;65907;53.640;10.050;2023-04-07T09:31:46;101169.56;;;19.24;31.97
76973;BME280;65907;53.640;10.050;2023-04-07T09:34:31;101169.06;;;19.19;32.24
76973;BME280;65907;53.640;10.050;2023-04-07T09:36:57;101167.56;;;19.02;32.42
76973;BME280;65907;53.640;10.050;2023-04-07T09:39:23;101161.94;;;18.95;32.39
76973;BME280;65907;53.640;10.050;2023-04-07T09:41:48;101171.63;;;18.93;32.49
76973;BME280;65907;53.640;10.050;2023-04-07T09:44:13;101170.94;;;19.04;32.54
76973;BME280;65907;53.640;10.050;2023-04-07T09:46:48;101168.41;;;19.02;32.36
76973;BME280;65907;53.640;10.050;2023-04-07T09:49:17;101164.22;;;19.13;32.17
76973;BME280;65907;53.640;10.050;2023-04-07T09:51:54;101161.63;;;19.13;32.48
76973;BME280;65907;53.640;10.050;2023-04-07T09:54:53;101168.63;;;19.12;32.39
76973;BME280;65907;53.640;10.050;2023-04-07T09:57:14;101161.13;;;19.08;32.37
76973;BME280;65907;53.640;10.050;2023-04-07T09:59:42;101168.72;;;19.11;32.45
76973;BME280;65907;53.640;10.050;2023-04-07T10:02:08;101167.69;;;19.13;32.21
76973;BME280;65907;53.640;10.050;2023-04-07T10:04:36;101167.47;;;19.16;32.47
76973;BME280;65907;53.640;10.050;2023-04-07T10:07:02;101166.84;;;19.13;32.60
76973;BME280;65907;53.640;10.050;2023-04-07T10:09:29;101174.06;;;19.09;32.28
76973;BME280;65907;53.640;10.050;2023-04-07T10:11:55;101165.59;;;19.18;32.42
76973;BME280;65907;53.640;10.050;2023-04-07T10:14:21;101171.44;;;19.22;32.38
76973;BME280;65907;53.640;10.050;2023-04-07T10:16:48;101167.06;;;19.10;32.35
76973;BME280;65907;53.640;10.050;2023-04-07T10:19:15;101168.84;;;19.22;32.42
76973;BME280;65907;53.640;10.050;2023-04-07T10:21:41;101170.09;;;19.16;32.25
76973;BME280;65907;53.640;10.050;2023-04-07T10:26:46;101175.19;;;19.18;32.61
76973;BME280;65907;53.640;10.050;2023-04-07T10:29:17;101176.16;;;19.17;32.37
76973;BME280;65907;53.640;10.050;2023-04-07T10:31:43;101188.44;;;19.15;32.63
76973;BME280;65907;53.640;10.050;2023-04-07T10:34:09;101181.66;;;19.25;32.33
76973;BME280;65907;53.640;10.050;2023-04-07T10:36:34;101176.22;;;19.15;32.47
76973;BME280;65907;53.640;10.050;2023-04-07T10:41:37;101184.69;;;19.06;32.96
76973;BME280;65907;53.640;10.050;2023-04-07T10:44:05;101181.88;;;19.09;32.74
76973;BME280;65907;53.640;10.050;2023-04-07T10:47:16;101176.25;;;19.02;32.76
76973;BME280;65907;53.640;10.050;2023-04-07T10:49:25;101182.09;;;19.06;33.11
76973;BME280;65907;53.640;10.050;2023-04-07T10:55:26;101182.38;;;19.01;32.87
76973;BME280;65907;53.640;10.050;2023-04-07T11:00:31;101174.53;;;18.88;33.09
76973;BME280;65907;53.640;10.050;2023-04-07T11:02:57;101177.56;;;18.95;32.95
76973;BME280;65907;53.640;10.050;2023-04-07T11:05:33;101169.84;;;18.94;33.13
76973;BME280;65907;53.640;10.050;2023-04-07T11:08:05;101176.22;;;18.89;33.40
76973;BME280;65907;53.640;10.050;2023-04-07T11:10:46;101178.50;;;18.94;32.99
76973;BME280;65907;53.640;10.050;2023-04-07T11:13:30;101178.50;;;18.94;33.19
76973;BME280;65907;53.640;10.050;2023-04-07T11:16:03;101174.53;;;18.88;33.33
76973;BME280;65907;53.640;10.050;2023-04-07T11:18:29;101172.56;;;18.92;33.15
76973;BME280;65907;53.640;10.050;2023-04-07T11:20:55;101173.69;;;18.88;33.14
76973;BME280;65907;53.640;10.050;2023-04-07T11:23:24;101177.88;;;18.90;33.21
76973;BME280;65907;53.640;10.050;2023-04-07T11:25:52;101186.31;;;18.81;33.35
76973;BME280;65907;53.640;10.050;2023-04-07T11:28:18;101177.22;;;18.87;33.19
76973;BME280;65907;53.640;10.050;2023-04-07T11:30:44;101175.34;;;18.76;33.81
76973;BME280;65907;53.640;10.050;2023-04-07T11:33:13;101172.16;;;18.85;33.34
76973;BME280;65907;53.640;10.050;2023-04-07T11:35:45;101175.91;;;18.81;33.74
76973;BME280;65907;53.640;10.050;2023-04-07T11:38:10;101173.81;;;18.73;33.51
76973;BME280;65907;53.640;10.050;2023-04-07T11:40:36;101171.06;;;18.75;33.54
76973;BME280;65907;53.640;10.050;2023-04-07T11:43:14;101180.69;;;18.74;33.56
76973;BME280;65907;53.640;10.050;2023-04-07T11:45:39;101174.00;;;18.70;33.70
76973;BME280;65907;53.640;10.050;2023-04-07T11:48:24;101170.03;;;18.77;33.75
76973;BME280;65907;53.640;10.050;2023-04-07T11:50:49;101176.84;;;18.80;33.68
76973;BME280;65907;53.640;10.050;2023-04-07T11:53:23;101174.81;;;18.71;33.60
76973;BME280;65907;53.640;10.050;2023-04-07T11:55:57;101171.81;;;18.77;33.80
76973;BME280;65907;53.640;10.050;2023-04-07T11:58:23;101177.56;;;18.69;34.00
76973;BME280;65907;53.640;10.050;2023-04-07T12:00:54;101178.38;;;18.70;33.74
76973;BME280;65907;53.640;10.050;2023-04-07T12:03:22;101182.41;;;18.61;33.92
76973;BME280;65907;53.640;10.050;2023-04-07T12:05:47;101187.84;;;18.71;34.07
76973;BME280;65907;53.640;10.050;2023-04-07T12:08:13;101186.81;;;18.73;33.51
76973;BME280;65907;53.640;10.050;2023-04-07T12:10:42;101191.09;;;18.74;33.64
76973;BME280;65907;53.640;10.050;2023-04-07T12:13:08;101179.94;;;18.72;33.56
76973;BME280;65907;53.640;10.050;2023-04-07T12:15:34;101189.22;;;18.76;33.73
76973;BME280;65907;53.640;10.050;2023-04-07T12:17:59;101182.75;;;18.69;33.81
76973;BME280;65907;53.640;10.050;2023-04-07T12:20:25;101185.97;;;18.73;33.50
76973;BME280;65907;53.640;10.050;2023-04-07T12:22:50;101176.59;;;18.70;33.64
76973;BME280;65907;53.640;10.050;2023-04-07T12:25:16;101178.47;;;18.68;33.95
76973;BME280;65907;53.640;10.050;2023-04-07T12:27:42;101187.03;;;18.70;33.58
76973;BME280;65907;53.640;10.050;2023-04-07T12:30:07;101190.56;;;18.69;33.65
76973;BME280;65907;53.640;10.050;2023-04-07T12:32:32;101188.88;;;18.68;33.67
76973;BME280;65907;53.640;10.050;2023-04-07T12:35:01;101177.13;;;18.75;33.78
76973;BME280;65907;53.640;10.050;2023-04-07T12:37:26;101185.25;;;18.71;33.96
76973;BME280;65907;53.640;10.050;2023-04-07T12:39:52;101184.00;;;18.76;33.56
76973;BME280;65907;53.640;10.050;2023-04-07T12:42:17;101178.50;;;18.81;33.53
76973;BME280;65907;53.640;10.050;2023-04-07T12:44:42;101186.47;;;18.65;33.93
76973;BME280;65907;53.640;10.050;2023-04-07T12:47:07;101186.59;;;18.63;33.98
76973;BME280;65907;53.640;10.050;2023-04-07T12:49:33;101186.47;;;18.65;34.03
76973;BME280;65907;53.640;10.050;2023-04-07T12:51:58;101186.56;;;18.51;33.96
76973;BME280;65907;53.640;10.050;2023-04-07T12:54:24;101192.75;;;18.62;33.90
76973;BME280;65907;53.640;10.050;2023-04-07T12:56:49;101188.59;;;18.73;33.63
76973;BME280;65907;53.640;10.050;2023-04-07T12:59:15;101196.91;;;18.78;33.75